EDLP/PAD METAR and TAF weather

Enter ICAO airport designator
Station Type Date Time Source
EDLP METAR 2020/09/28 09:20 UTC NOAA

EDLP 280920Z 15004KT 120V180 CAVOK 12/07 Q1009


Station Type Date Time Source
EDLP Decoded METAR 2020/09/28 09:20 UTC NOAA

Paderborn / Lippstadt, Germany (EDLP) 51-37N 008-37E
Sep 28, 2020 - 05:20 AM EDT / 2020.09.28 0920 UTC
Wind: from the SSE (150 degrees) at 5 MPH (4 KT) (direction variable):0
Visibility: greater than 7 mile(s):0
Temperature: 53 F (12 C)
Dew Point: 44 F (7 C)
Relative Humidity: 71%
Pressure (altimeter): 29.80 in. Hg (1009 hPa)
ob: EDLP 280920Z 15004KT 120V180 CAVOK 12/07 Q1009
cycle: 9

Station Type Date Time Source
EDLP TAF 2020/09/28 06:27 UTC NOAA

TAF EDLP 280500Z 2806/2906 18006KT 9999 FEW040
TEMPO 2812/2815 24006KT

Example: see airport list